Melbourne, Australia
Current Conditions -  °F | °C
As of 6:30 AM on Saturday 01 Nov 2014 (Local Time) from YMEN Reporting Station
Heavy Rain Heavy Rain  
Wind Chill: 55°   Ceiling: 2700
Heat Index: 55°   Visibility: 4mi
Dew Point: 55°   Wind: 6mph
Humidity: 100%   Direction: 280°W
Pressure: 29.56"   Gusts: NA
Location:  37.81°S, 144.96°E
Report Text: YMEN 311930Z AUTO 28005KT 6000 +RA SCT019 SCT024 BKN027 13/13 Q1001
Loading
Personal Weather Stations






























Interactive Weather Map
Tropical Storm Tracking
New forecast layout! Learn more

10-Day Weather Forecast

Advertisements
Track Severe Weather on mobile